createdAt,value
2023-02-24T00:02:06.116Z,11.73
2023-02-24T00:04:38.579Z,12.17
2023-02-24T00:07:07.301Z,12.93
2023-02-24T00:09:34.134Z,13.93
2023-02-24T00:12:13.104Z,13.73
2023-02-24T00:14:44.606Z,11.87
2023-02-24T00:17:15.631Z,12.83
2023-02-24T00:19:43.209Z,14.50
2023-02-24T00:22:10.353Z,14.43
2023-02-24T00:24:37.650Z,15.10
2023-02-24T00:27:11.957Z,13.73
2023-02-24T00:29:40.696Z,14.27
2023-02-24T00:32:12.999Z,14.50
2023-02-24T00:34:40.635Z,14.60
2023-02-24T00:37:08.366Z,14.27
2023-02-24T00:39:36.944Z,15.93
2023-02-24T00:42:06.879Z,16.60
2023-02-24T00:44:37.787Z,15.47
2023-02-24T00:47:09.340Z,16.43
2023-02-24T00:49:41.908Z,15.67
2023-02-24T00:52:15.435Z,15.00
2023-02-24T00:54:44.128Z,15.30
2023-02-24T00:57:12.210Z,15.97
2023-02-24T00:59:39.950Z,16.80
2023-02-24T01:02:08.129Z,17.70
2023-02-24T01:04:37.481Z,18.00
2023-02-24T01:07:10.558Z,16.67
2023-02-24T01:09:41.493Z,16.67
2023-02-24T01:12:30.401Z,17.77
2023-02-24T01:14:57.365Z,17.80
2023-02-24T01:17:25.385Z,17.43
2023-02-24T01:19:52.658Z,17.50
2023-02-24T01:22:21.368Z,17.23
2023-02-24T01:24:49.300Z,19.00
2023-02-24T01:27:19.336Z,16.90
2023-02-24T01:29:47.870Z,19.90
2023-02-24T01:32:20.508Z,18.33
2023-02-24T01:34:51.776Z,18.87
2023-02-24T01:37:19.590Z,20.00
2023-02-24T01:39:47.901Z,19.67
2023-02-24T01:42:22.008Z,19.37
2023-02-24T01:44:48.898Z,18.60
2023-02-24T01:47:20.867Z,21.27
2023-02-24T01:49:54.499Z,19.90
2023-02-24T01:52:27.796Z,20.97
2023-02-24T01:55:01.381Z,19.20
2023-02-24T01:57:33.261Z,18.63
2023-02-24T02:00:24.807Z,19.37
2023-02-24T02:02:52.774Z,18.27
2023-02-24T02:05:19.778Z,17.37
2023-02-24T02:07:46.571Z,19.30
2023-02-24T02:10:14.271Z,18.93
2023-02-24T02:12:44.317Z,19.07
2023-02-24T02:15:16.800Z,20.83
2023-02-24T02:18:14.564Z,19.70
2023-02-24T02:21:08.752Z,20.67
2023-02-24T02:24:09.287Z,20.70
2023-02-24T02:27:10.182Z,20.33
2023-02-24T02:30:06.235Z,18.37
2023-02-24T02:33:21.453Z,16.30
2023-02-24T02:36:19.202Z,12.43
2023-02-24T02:38:58.184Z,11.40
2023-02-24T02:41:36.207Z,8.53
2023-02-24T02:44:20.767Z,6.77
2023-02-24T02:47:02.403Z,6.57
2023-02-24T02:49:40.163Z,4.83
2023-02-24T02:52:15.426Z,4.67
2023-02-24T02:54:54.035Z,3.93
2023-02-24T02:57:28.024Z,3.40
2023-02-24T03:00:21.358Z,3.70
2023-02-24T03:02:55.266Z,3.93
2023-02-24T03:05:37.163Z,3.10
2023-02-24T03:08:11.368Z,3.43
2023-02-24T03:10:45.357Z,2.93
2023-02-24T03:13:16.395Z,3.40
2023-02-24T03:15:45.803Z,2.80
2023-02-24T03:18:29.061Z,3.10
2023-02-24T03:21:07.840Z,3.20
2023-02-24T03:23:50.968Z,3.83
2023-02-24T03:26:42.205Z,4.03
2023-02-24T03:29:48.515Z,4.37
2023-02-24T03:32:33.195Z,4.93
2023-02-24T03:35:20.481Z,5.30
2023-02-24T03:37:48.046Z,6.23
2023-02-24T03:40:18.190Z,6.47
2023-02-24T03:43:27.128Z,7.17
2023-02-24T03:45:56.177Z,7.27
2023-02-24T03:48:27.105Z,7.73
2023-02-24T03:50:54.351Z,8.03
2023-02-24T03:53:56.520Z,8.70
2023-02-24T03:56:57.940Z,8.87
2023-02-24T04:00:26.015Z,8.80
2023-02-24T04:03:26.119Z,8.30
2023-02-24T04:06:18.919Z,8.80
2023-02-24T04:09:01.375Z,8.60
2023-02-24T04:11:37.451Z,9.03
2023-02-24T04:14:18.617Z,7.83
2023-02-24T04:16:56.978Z,8.93
2023-02-24T04:19:29.154Z,8.53
2023-02-24T04:21:57.237Z,9.20
2023-02-24T04:24:30.175Z,10.37
2023-02-24T04:27:00.803Z,11.93
2023-02-24T04:29:35.647Z,9.33
2023-02-24T04:32:10.529Z,9.43
2023-02-24T04:34:40.394Z,10.47
2023-02-24T04:37:08.443Z,10.13
2023-02-24T04:39:38.400Z,8.10
2023-02-24T04:42:08.191Z,8.67
2023-02-24T04:44:35.196Z,8.83
2023-02-24T04:47:03.802Z,8.40
2023-02-24T04:49:30.673Z,9.27
2023-02-24T04:51:57.457Z,8.50
2023-02-24T04:54:24.314Z,8.30
2023-02-24T04:56:52.321Z,8.50
2023-02-24T04:59:21.795Z,8.37
2023-02-24T05:01:53.036Z,8.70
2023-02-24T05:04:20.279Z,7.53
2023-02-24T05:06:47.330Z,7.40
2023-02-24T05:09:17.990Z,6.60
2023-02-24T05:11:48.950Z,7.10
2023-02-24T05:14:20.797Z,7.00
2023-02-24T05:16:49.172Z,7.20
2023-02-24T05:19:38.342Z,6.77
2023-02-24T05:22:07.100Z,6.57
2023-02-24T05:24:34.733Z,6.40
2023-02-24T05:27:03.712Z,6.93
2023-02-24T05:29:34.513Z,7.07
2023-02-24T05:32:03.975Z,6.80
2023-02-24T05:34:33.586Z,7.03
2023-02-24T05:37:10.078Z,6.90
2023-02-24T05:39:37.838Z,6.90
2023-02-24T05:42:06.684Z,6.70
2023-02-24T05:44:35.462Z,7.23
2023-02-24T05:47:05.093Z,6.77
2023-02-24T05:49:35.006Z,6.27
2023-02-24T05:52:08.720Z,6.97
2023-02-24T05:54:42.555Z,6.57
2023-02-24T05:57:18.978Z,7.27
2023-02-24T05:59:48.229Z,7.80
2023-02-24T06:02:27.026Z,7.80
2023-02-24T06:04:55.546Z,7.30
2023-02-24T06:07:28.595Z,7.43
2023-02-24T06:09:58.484Z,7.53
2023-02-24T06:12:29.168Z,7.50
2023-02-24T06:14:58.093Z,7.60
2023-02-24T06:17:25.579Z,7.73
2023-02-24T06:19:54.057Z,7.90
2023-02-24T06:22:24.033Z,8.03
2023-02-24T06:24:51.124Z,7.83
2023-02-24T06:27:21.367Z,7.80
2023-02-24T06:29:51.288Z,8.03
2023-02-24T06:32:21.378Z,8.27
2023-02-24T06:34:48.246Z,7.43
2023-02-24T06:37:16.350Z,8.33
2023-02-24T06:39:43.449Z,7.87
2023-02-24T06:42:12.022Z,8.60
2023-02-24T06:44:41.023Z,9.00
2023-02-24T06:47:13.280Z,10.03
2023-02-24T06:49:41.653Z,7.50
2023-02-24T06:52:08.706Z,7.17
2023-02-24T06:54:36.180Z,6.57
2023-02-24T06:57:04.115Z,7.20
2023-02-24T06:59:32.103Z,6.97
2023-02-24T07:02:01.927Z,9.17
2023-02-24T07:04:29.343Z,8.33
2023-02-24T07:07:03.424Z,8.40
2023-02-24T07:09:32.050Z,9.10
2023-02-24T07:12:02.527Z,10.80
2023-02-24T07:14:33.220Z,10.33
2023-02-24T07:17:00.263Z,9.93
2023-02-24T07:19:32.196Z,9.47
2023-02-24T07:22:03.097Z,10.40
2023-02-24T07:24:36.583Z,10.13
2023-02-24T07:27:12.470Z,9.77
2023-02-24T07:29:39.783Z,10.13
2023-02-24T07:32:09.352Z,9.83
2023-02-24T07:34:40.393Z,9.80
2023-02-24T07:37:09.404Z,9.20
2023-02-24T07:39:40.624Z,10.27
2023-02-24T07:42:13.378Z,8.67
2023-02-24T07:44:40.236Z,6.97
2023-02-24T07:47:10.046Z,8.17
2023-02-24T07:49:39.539Z,6.17
2023-02-24T07:52:08.086Z,5.70
2023-02-24T07:54:35.354Z,5.23
2023-02-24T07:57:02.152Z,5.00
2023-02-24T07:59:33.180Z,4.43
2023-02-24T08:02:04.504Z,4.57
2023-02-24T08:04:32.963Z,4.63
2023-02-24T08:07:03.678Z,7.83
2023-02-24T08:09:46.108Z,5.77
2023-02-24T08:12:22.545Z,3.77
2023-02-24T08:14:52.861Z,3.73
2023-02-24T08:17:23.979Z,4.03
2023-02-24T08:20:12.909Z,4.20
2023-02-24T08:22:47.120Z,4.30
2023-02-24T08:25:19.726Z,4.13
2023-02-24T08:28:12.737Z,4.03
2023-02-24T08:30:47.701Z,3.90
2023-02-24T08:33:21.920Z,4.10
2023-02-24T08:36:01.305Z,4.30
2023-02-24T08:38:42.178Z,4.63
2023-02-24T08:41:21.138Z,4.23
2023-02-24T08:43:49.653Z,4.23
2023-02-24T08:46:32.712Z,4.50
2023-02-24T08:49:01.082Z,4.60
2023-02-24T08:51:35.484Z,4.83
2023-02-24T08:54:10.850Z,4.47
2023-02-24T08:56:43.331Z,4.43
2023-02-24T08:59:42.831Z,4.50
2023-02-24T09:02:24.041Z,4.50
2023-02-24T09:05:03.669Z,5.17
2023-02-24T09:07:40.653Z,4.57
2023-02-24T09:10:26.226Z,4.27
2023-02-24T09:12:53.534Z,5.40
2023-02-24T09:15:22.664Z,4.70
2023-02-24T09:18:01.234Z,4.73
2023-02-24T09:20:47.957Z,4.63
2023-02-24T09:23:20.059Z,4.57
2023-02-24T09:25:50.872Z,5.03
2023-02-24T09:28:24.554Z,4.17
2023-02-24T09:31:04.739Z,4.60
2023-02-24T09:33:39.131Z,3.97
2023-02-24T09:36:13.292Z,3.90
2023-02-24T09:39:02.200Z,3.60
2023-02-24T09:41:54.058Z,4.50
2023-02-24T09:44:45.882Z,3.90
2023-02-24T09:47:48.687Z,4.10
2023-02-24T09:50:40.677Z,4.73
2023-02-24T09:53:19.631Z,4.30
2023-02-24T09:56:16.032Z,4.90
2023-02-24T09:58:50.030Z,4.50
2023-02-24T10:01:43.044Z,4.73
2023-02-24T10:04:21.833Z,6.10
2023-02-24T10:07:12.845Z,6.20
2023-02-24T10:10:19.784Z,7.23
2023-02-24T10:12:53.839Z,7.53
2023-02-24T10:15:47.029Z,10.57
2023-02-24T10:18:33.424Z,7.60
2023-02-24T10:21:15.905Z,7.40
2023-02-24T10:24:00.393Z,7.33
2023-02-24T10:27:16.825Z,8.73
2023-02-24T10:30:01.056Z,7.57
2023-02-24T10:33:01.604Z,7.57
2023-02-24T10:35:33.910Z,7.37
2023-02-24T10:38:05.592Z,6.30
2023-02-24T10:40:45.011Z,6.20
2023-02-24T10:43:30.037Z,6.50
2023-02-24T10:46:07.518Z,5.93
2023-02-24T10:48:41.637Z,6.57
2023-02-24T10:51:20.172Z,5.63
2023-02-24T10:54:14.201Z,5.20
2023-02-24T10:56:44.886Z,6.27
2023-02-24T10:59:24.470Z,5.90
2023-02-24T11:01:59.058Z,6.50
2023-02-24T11:05:04.424Z,5.57
2023-02-24T11:07:53.560Z,5.90
2023-02-24T11:10:32.348Z,4.80
2023-02-24T11:13:20.044Z,6.87
2023-02-24T11:16:13.609Z,5.83
2023-02-24T11:18:49.913Z,6.03
2023-02-24T11:21:17.727Z,7.23
2023-02-24T11:23:56.859Z,7.30
2023-02-24T11:26:32.046Z,7.47
2023-02-24T11:29:34.237Z,7.53
2023-02-24T11:32:40.975Z,8.57
2023-02-24T11:35:17.568Z,7.67
2023-02-24T11:38:17.747Z,6.97
2023-02-24T11:40:55.010Z,8.53
2023-02-24T11:43:28.163Z,8.10
2023-02-24T11:46:19.516Z,7.83
2023-02-24T11:48:56.779Z,8.87
2023-02-24T11:51:37.582Z,9.47
2023-02-24T11:54:17.626Z,9.83
2023-02-24T11:57:23.932Z,9.47
2023-02-24T12:00:20.456Z,9.40
2023-02-24T12:03:18.407Z,9.63
2023-02-24T12:05:53.596Z,9.67
2023-02-24T12:08:34.636Z,8.60
2023-02-24T12:11:15.144Z,8.43
2023-02-24T12:14:07.489Z,8.47
2023-02-24T12:16:45.679Z,8.60
2023-02-24T12:19:31.941Z,9.40
2023-02-24T12:22:11.306Z,11.27
2023-02-24T12:24:49.907Z,9.57
2023-02-24T12:27:48.679Z,7.83
2023-02-24T12:30:38.250Z,8.83
2023-02-24T12:33:37.382Z,7.47
2023-02-24T12:36:33.783Z,7.20
2023-02-24T12:39:17.808Z,6.63
2023-02-24T12:42:06.326Z,7.33
2023-02-24T12:45:02.714Z,8.10
2023-02-24T12:48:23.582Z,9.27
2023-02-24T12:51:22.044Z,7.10
2023-02-24T12:54:06.489Z,7.20
2023-02-24T12:57:20.656Z,8.13
2023-02-24T12:59:48.697Z,9.33
2023-02-24T13:03:00.220Z,8.37
2023-02-24T13:05:47.724Z,10.20
2023-02-24T13:08:42.845Z,7.97
2023-02-24T13:11:17.644Z,8.20
2023-02-24T13:14:31.680Z,9.27
2023-02-24T13:17:10.802Z,9.77
2023-02-24T13:19:43.410Z,11.07
2023-02-24T13:22:13.220Z,9.30
2023-02-24T13:24:55.083Z,11.43
2023-02-24T13:27:34.830Z,9.53
2023-02-24T13:30:11.707Z,11.37
2023-02-24T13:32:46.271Z,10.37
2023-02-24T13:35:16.035Z,9.40
2023-02-24T13:37:46.443Z,9.97
2023-02-24T13:40:22.391Z,9.93
2023-02-24T13:42:58.428Z,8.57
2023-02-24T13:45:37.197Z,9.00
2023-02-24T13:48:15.556Z,8.07
2023-02-24T13:51:08.142Z,8.00
2023-02-24T13:53:46.854Z,8.40
2023-02-24T13:56:38.450Z,8.10
2023-02-24T13:59:38.649Z,7.70
2023-02-24T14:02:14.284Z,8.37
2023-02-24T14:04:58.707Z,8.50
2023-02-24T14:07:31.566Z,8.27
2023-02-24T14:10:05.078Z,9.07
2023-02-24T14:12:36.167Z,9.53
2023-02-24T14:15:05.290Z,9.47
2023-02-24T14:17:37.442Z,10.67
2023-02-24T14:20:10.960Z,9.73
2023-02-24T14:22:49.763Z,9.30
2023-02-24T14:25:17.998Z,9.27
2023-02-24T14:27:49.809Z,10.13
2023-02-24T14:30:33.511Z,9.10
2023-02-24T14:33:02.034Z,10.80
2023-02-24T14:35:41.957Z,9.33
2023-02-24T14:38:34.362Z,10.47
2023-02-24T14:41:04.691Z,10.90
2023-02-24T14:43:32.139Z,9.33
2023-02-24T14:46:06.078Z,9.87
2023-02-24T14:48:32.983Z,9.90
2023-02-24T14:51:17.760Z,9.90
2023-02-24T14:53:52.646Z,10.63
2023-02-24T14:56:23.767Z,9.67
2023-02-24T14:59:09.260Z,10.20
2023-02-24T15:01:52.283Z,9.30
2023-02-24T15:04:39.959Z,9.53
2023-02-24T15:07:17.439Z,9.67
2023-02-24T15:09:47.561Z,9.53
2023-02-24T15:12:35.090Z,9.27
2023-02-24T15:15:17.854Z,8.63
2023-02-24T15:17:45.449Z,9.10
2023-02-24T15:20:37.133Z,8.90
2023-02-24T15:23:05.552Z,8.77
2023-02-24T15:25:45.505Z,7.33
2023-02-24T15:28:44.852Z,8.70
2023-02-24T15:31:21.292Z,8.40
2023-02-24T15:34:01.366Z,8.87
2023-02-24T15:36:34.208Z,9.27
2023-02-24T15:39:18.246Z,8.33
2023-02-24T15:41:47.670Z,8.97
2023-02-24T15:44:33.907Z,9.00
2023-02-24T15:47:23.377Z,9.13
2023-02-24T15:49:50.190Z,4.50
2023-02-24T15:52:25.508Z,8.50
2023-02-24T15:54:54.493Z,8.77
2023-02-24T15:57:21.805Z,8.20
2023-02-24T15:59:48.788Z,8.47
2023-02-24T16:02:22.660Z,7.93
2023-02-24T16:04:53.629Z,8.40
2023-02-24T16:07:36.777Z,7.90
2023-02-24T16:10:05.244Z,7.97
2023-02-24T16:12:43.770Z,7.60
2023-02-24T16:15:21.001Z,8.13
2023-02-24T16:17:48.531Z,8.20
2023-02-24T16:20:31.437Z,7.60
2023-02-24T16:23:01.395Z,7.37
2023-02-24T16:25:34.728Z,8.37
2023-02-24T16:28:02.205Z,9.23
2023-02-24T16:30:30.755Z,9.07
2023-02-24T16:33:00.055Z,9.13
2023-02-24T16:35:28.227Z,9.80
2023-02-24T16:37:55.096Z,9.53
2023-02-24T16:40:28.004Z,10.97
2023-02-24T16:42:54.829Z,10.97
2023-02-24T16:45:25.856Z,10.50
2023-02-24T16:47:55.653Z,10.90
2023-02-24T16:50:43.795Z,10.73
2023-02-24T16:53:18.613Z,12.77
2023-02-24T16:55:46.544Z,11.73
2023-02-24T16:58:14.109Z,12.30
2023-02-24T17:00:44.659Z,12.93
2023-02-24T17:03:42.320Z,13.30
2023-02-24T17:06:09.538Z,12.93
2023-02-24T17:08:36.537Z,13.03
2023-02-24T17:11:04.466Z,14.47
2023-02-24T17:13:31.249Z,14.57
2023-02-24T17:15:58.145Z,14.53
2023-02-24T17:18:26.364Z,14.63
2023-02-24T17:20:53.827Z,14.83
2023-02-24T17:23:20.744Z,15.70
2023-02-24T17:25:55.253Z,16.53
2023-02-24T17:28:22.442Z,15.27
2023-02-24T17:30:49.314Z,15.20
2023-02-24T17:33:16.199Z,14.93
2023-02-24T17:35:44.462Z,16.20
2023-02-24T17:38:21.557Z,15.13
2023-02-24T17:40:48.480Z,16.20
2023-02-24T17:43:15.306Z,15.43
2023-02-24T17:45:45.092Z,14.83
2023-02-24T17:48:14.863Z,15.17
2023-02-24T17:50:43.815Z,12.97
2023-02-24T17:53:11.305Z,12.33
2023-02-24T17:55:39.507Z,12.47
2023-02-24T17:58:08.136Z,12.67
2023-02-24T18:00:34.928Z,10.73
2023-02-24T18:03:03.541Z,9.00
2023-02-24T18:05:30.461Z,10.50
2023-02-24T18:08:00.542Z,8.77
2023-02-24T18:10:27.781Z,8.50
2023-02-24T18:12:54.741Z,8.57
2023-02-24T18:15:22.027Z,9.43
2023-02-24T18:17:48.766Z,9.30
2023-02-24T18:20:15.501Z,12.70
2023-02-24T18:22:42.314Z,12.13
2023-02-24T18:25:09.754Z,10.00
2023-02-24T18:27:36.617Z,11.77
2023-02-24T18:30:04.386Z,10.10
2023-02-24T18:32:31.435Z,10.33
2023-02-24T18:34:58.242Z,11.57
2023-02-24T18:37:24.986Z,11.00
2023-02-24T18:39:53.228Z,12.03
2023-02-24T18:42:20.073Z,12.17
2023-02-24T18:44:47.008Z,13.27
2023-02-24T18:47:13.761Z,11.27
2023-02-24T18:49:40.569Z,11.50
2023-02-24T18:52:07.615Z,14.13
2023-02-24T18:54:34.626Z,13.27
2023-02-24T18:57:01.922Z,14.33
2023-02-24T18:59:29.332Z,14.30
2023-02-24T19:01:56.912Z,13.70
2023-02-24T19:04:25.043Z,14.00
2023-02-24T19:06:52.379Z,15.57
2023-02-24T19:09:21.537Z,14.87
2023-02-24T19:11:49.933Z,12.90
2023-02-24T19:14:17.642Z,12.87
2023-02-24T19:16:44.912Z,12.60
2023-02-24T19:19:16.408Z,12.50
2023-02-24T19:21:48.237Z,9.93
2023-02-24T19:24:17.200Z,12.23
2023-02-24T19:26:45.792Z,10.57
2023-02-24T19:29:12.992Z,8.87
2023-02-24T19:31:40.677Z,6.00
2023-02-24T19:34:11.458Z,9.27
2023-02-24T19:36:38.654Z,8.50
2023-02-24T19:39:10.205Z,8.73
2023-02-24T19:41:37.810Z,7.57
2023-02-24T19:44:04.629Z,8.13
2023-02-24T19:46:33.948Z,6.37
2023-02-24T19:49:01.435Z,4.73
2023-02-24T19:51:28.863Z,4.87
2023-02-24T19:54:03.401Z,8.13
2023-02-24T19:56:36.332Z,4.37
2023-02-24T19:59:06.175Z,4.13
2023-02-24T20:01:33.728Z,3.47
2023-02-24T20:04:03.923Z,3.30
2023-02-24T20:06:43.393Z,3.17
2023-02-24T20:09:17.921Z,4.00
2023-02-24T20:11:45.916Z,3.47
2023-02-24T20:14:15.260Z,3.43
2023-02-24T20:16:43.567Z,3.67
2023-02-24T20:19:12.904Z,4.10
2023-02-24T20:21:39.913Z,5.10
2023-02-24T20:24:14.330Z,3.60
2023-02-24T20:26:49.585Z,3.67
2023-02-24T20:29:19.181Z,3.17
2023-02-24T20:31:46.691Z,4.20
2023-02-24T20:34:16.140Z,4.30
2023-02-24T20:36:43.886Z,4.53
2023-02-24T20:39:13.887Z,3.60
2023-02-24T20:41:41.428Z,4.17
2023-02-24T20:44:08.542Z,3.60
2023-02-24T20:46:36.097Z,7.63
2023-02-24T20:49:06.722Z,4.20
2023-02-24T20:51:37.048Z,4.57
2023-02-24T20:54:06.168Z,4.03
2023-02-24T20:56:36.352Z,4.13
2023-02-24T20:59:07.988Z,4.10
2023-02-24T21:01:35.672Z,4.83
2023-02-24T21:04:03.968Z,3.80
2023-02-24T21:06:31.145Z,3.50
2023-02-24T21:08:58.597Z,4.03
2023-02-24T21:11:26.454Z,3.83
2023-02-24T21:13:53.699Z,4.17
2023-02-24T21:16:22.304Z,4.13
2023-02-24T21:18:51.473Z,6.17
2023-02-24T21:21:19.754Z,4.60
2023-02-24T21:23:47.756Z,4.77
2023-02-24T21:26:15.209Z,4.87
2023-02-24T21:28:42.016Z,5.17
2023-02-24T21:31:16.135Z,5.70
2023-02-24T21:33:43.715Z,4.47
2023-02-24T21:36:14.877Z,5.43
2023-02-24T21:38:41.692Z,5.17
2023-02-24T21:41:14.923Z,5.43
2023-02-24T21:43:44.139Z,4.50
2023-02-24T21:46:13.173Z,5.57
2023-02-24T21:48:41.784Z,5.67
2023-02-24T21:51:11.993Z,4.97
2023-02-24T21:53:43.439Z,5.80
2023-02-24T21:56:16.860Z,5.20
2023-02-24T21:59:00.954Z,5.13
2023-02-24T22:01:31.691Z,4.93
2023-02-24T22:04:01.836Z,5.20
2023-02-24T22:06:31.823Z,4.70
2023-02-24T22:09:00.848Z,4.83
2023-02-24T22:11:30.681Z,4.40
2023-02-24T22:13:57.463Z,4.27
2023-02-24T22:16:26.115Z,4.60
2023-02-24T22:18:57.682Z,4.40
2023-02-24T22:21:28.541Z,4.30
2023-02-24T22:23:59.821Z,4.23
2023-02-24T22:26:28.924Z,3.90
2023-02-24T22:28:56.094Z,3.73
2023-02-24T22:31:27.144Z,3.43
2023-02-24T22:33:54.824Z,4.00
2023-02-24T22:36:26.301Z,4.43
2023-02-24T22:38:56.377Z,3.97
2023-02-24T22:41:27.664Z,3.53
2023-02-24T22:43:54.826Z,4.10
2023-02-24T22:46:26.926Z,3.93
2023-02-24T22:48:55.977Z,3.07
2023-02-24T22:51:24.768Z,3.17
2023-02-24T22:53:52.523Z,2.30
2023-02-24T22:56:23.920Z,4.03
2023-02-24T22:58:51.326Z,3.47
2023-02-24T23:01:25.750Z,3.50
2023-02-24T23:03:53.072Z,3.13
2023-02-24T23:06:23.904Z,3.83
2023-02-24T23:08:52.381Z,3.27
2023-02-24T23:11:30.543Z,4.00
2023-02-24T23:14:01.541Z,3.60
2023-02-24T23:16:31.682Z,4.30
2023-02-24T23:19:04.169Z,4.57
2023-02-24T23:21:45.094Z,4.13
2023-02-24T23:24:14.169Z,4.40
2023-02-24T23:26:48.073Z,4.83
2023-02-24T23:29:18.010Z,5.53
2023-02-24T23:31:45.926Z,4.90
2023-02-24T23:34:13.754Z,5.30
2023-02-24T23:36:44.778Z,5.50
2023-02-24T23:39:15.660Z,4.83
2023-02-24T23:41:42.558Z,5.40
2023-02-24T23:44:09.885Z,5.83
2023-02-24T23:46:37.683Z,5.80
2023-02-24T23:49:05.381Z,4.23
2023-02-24T23:51:47.216Z,5.30
2023-02-24T23:54:16.850Z,4.50
2023-02-24T23:56:43.713Z,6.37
2023-02-24T23:59:11.848Z,5.73
